createdAt,value
2019-01-24T00:00:50.036Z,-2.84
2019-01-24T00:03:19.835Z,-2.85
2019-01-24T00:05:49.456Z,-2.88
2019-01-24T00:08:19.028Z,-2.88
2019-01-24T00:10:48.664Z,-2.88
2019-01-24T00:13:18.232Z,-2.86
2019-01-24T00:15:47.792Z,-2.86
2019-01-24T00:18:17.366Z,-2.87
2019-01-24T00:20:46.922Z,-2.85
2019-01-24T00:23:16.537Z,-2.85
2019-01-24T00:25:46.120Z,-2.86
2019-01-24T00:28:15.675Z,-2.87
2019-01-24T00:30:45.246Z,-2.87
2019-01-24T00:33:14.818Z,-2.88
2019-01-24T00:35:44.738Z,-2.89
2019-01-24T00:38:14.285Z,-2.86
2019-01-24T00:40:43.835Z,-2.86
2019-01-24T00:43:14.664Z,-2.87
2019-01-24T00:45:44.201Z,-2.87
2019-01-24T00:48:13.772Z,-2.86
2019-01-24T00:50:43.317Z,-2.87
2019-01-24T00:53:12.889Z,-2.87
2019-01-24T00:55:42.516Z,-2.85
2019-01-24T00:58:12.089Z,-2.83
2019-01-24T01:00:41.831Z,-2.81
2019-01-24T01:03:11.458Z,-2.82
2019-01-24T01:05:41.100Z,-2.80
2019-01-24T01:08:10.651Z,-2.80
2019-01-24T01:10:40.562Z,-2.77
2019-01-24T01:13:10.252Z,-2.75
2019-01-24T01:15:39.796Z,-2.73
2019-01-24T01:18:09.503Z,-2.73
2019-01-24T01:20:39.053Z,-2.71
2019-01-24T01:23:08.632Z,-2.71
2019-01-24T01:25:38.258Z,-2.71
2019-01-24T01:28:07.902Z,-2.71
2019-01-24T01:30:37.591Z,-2.71
2019-01-24T01:33:07.211Z,-2.71
2019-01-24T01:35:36.854Z,-2.72
2019-01-24T01:38:07.311Z,-2.71
2019-01-24T01:40:36.884Z,-2.70
2019-01-24T01:43:06.773Z,-2.69
2019-01-24T01:45:36.323Z,-2.66
2019-01-24T01:48:05.964Z,-2.63
2019-01-24T01:50:35.590Z,-2.65
2019-01-24T01:53:05.299Z,-2.63
2019-01-24T01:55:34.924Z,-2.64
2019-01-24T01:58:04.619Z,-2.62
2019-01-24T02:00:34.197Z,-2.61
2019-01-24T02:03:03.745Z,-2.62
2019-01-24T02:05:33.385Z,-2.61
2019-01-24T02:08:02.935Z,-2.60
2019-01-24T02:10:33.188Z,-2.60
2019-01-24T02:13:02.736Z,-2.62
2019-01-24T02:15:32.286Z,-2.64
2019-01-24T02:18:01.931Z,-2.63
2019-01-24T02:20:31.555Z,-2.62
2019-01-24T02:23:01.120Z,-2.62
2019-01-24T02:25:30.677Z,-2.60
2019-01-24T02:28:00.260Z,-2.60
2019-01-24T02:30:31.331Z,-2.62
2019-01-24T02:33:01.271Z,-2.62
2019-01-24T02:35:30.823Z,-2.60
2019-01-24T02:38:00.381Z,-2.59
2019-01-24T02:40:30.018Z,-2.57
2019-01-24T02:42:59.590Z,-2.56
2019-01-24T02:45:29.167Z,-2.54
2019-01-24T02:47:58.828Z,-2.52
2019-01-24T02:50:28.396Z,-2.51
2019-01-24T02:52:57.950Z,-2.52
2019-01-24T02:55:27.519Z,-2.54
2019-01-24T02:57:57.075Z,-2.56
2019-01-24T03:00:26.603Z,-2.57
2019-01-24T03:02:56.127Z,-2.58
2019-01-24T03:05:25.734Z,-2.60
2019-01-24T03:07:55.254Z,-2.61
2019-01-24T03:10:24.801Z,-2.60
2019-01-24T03:12:54.318Z,-2.61
2019-01-24T03:15:24.091Z,-2.60
2019-01-24T03:17:53.714Z,-2.62
2019-01-24T03:20:23.637Z,-2.64
2019-01-24T03:22:53.165Z,-2.64
2019-01-24T03:25:22.866Z,-2.62
2019-01-24T03:27:52.406Z,-2.62
2019-01-24T03:30:23.128Z,-2.62
2019-01-24T03:32:52.764Z,-2.62
2019-01-24T03:35:25.424Z,-2.62
2019-01-24T03:37:55.186Z,-2.64
2019-01-24T03:40:24.780Z,-2.62
2019-01-24T03:42:54.325Z,-2.63
2019-01-24T03:45:23.845Z,-2.61
2019-01-24T03:47:53.365Z,-2.61
2019-01-24T03:50:23.740Z,-2.61
2019-01-24T03:52:53.437Z,-2.61
2019-01-24T03:55:23.307Z,-2.62
2019-01-24T03:57:52.835Z,-2.63
2019-01-24T04:00:25.568Z,-2.64
2019-01-24T04:02:55.207Z,-2.67
2019-01-24T04:05:24.896Z,-2.66
2019-01-24T04:07:54.519Z,-2.66
2019-01-24T04:10:24.409Z,-2.67
2019-01-24T04:12:53.951Z,-2.67
2019-01-24T04:15:25.514Z,-2.68
2019-01-24T04:17:55.435Z,-2.69
2019-01-24T04:20:25.177Z,-2.67
2019-01-24T04:22:54.698Z,-2.67
2019-01-24T04:25:24.240Z,-2.68
2019-01-24T04:27:53.776Z,-2.66
2019-01-24T04:30:23.737Z,-2.66
2019-01-24T04:32:53.256Z,-2.64
2019-01-24T04:35:22.862Z,-2.63
2019-01-24T04:37:52.391Z,-2.63
2019-01-24T04:40:21.932Z,-2.60
2019-01-24T04:42:52.151Z,-2.60
2019-01-24T04:45:21.682Z,-2.60
2019-01-24T04:47:51.231Z,-2.62
2019-01-24T04:50:20.749Z,-2.63
2019-01-24T04:52:50.352Z,-2.64
2019-01-24T04:55:20.715Z,-2.66
2019-01-24T04:57:50.472Z,-2.69
2019-01-24T05:00:26.448Z,-2.69
2019-01-24T05:02:55.981Z,-2.71
2019-01-24T05:05:28.011Z,-2.73
2019-01-24T05:07:56.845Z,-2.77
2019-01-24T05:10:26.458Z,-2.75
2019-01-24T05:12:55.974Z,-2.77
2019-01-24T05:15:25.495Z,-2.78
2019-01-24T05:17:55.055Z,-2.81
2019-01-24T05:20:24.574Z,-2.86
2019-01-24T05:22:54.114Z,-2.87
2019-01-24T05:25:23.654Z,-2.88
2019-01-24T05:27:53.198Z,-2.86
2019-01-24T05:30:25.326Z,-2.87
2019-01-24T05:32:55.418Z,-2.86
2019-01-24T05:35:25.029Z,-2.86
2019-01-24T05:37:54.572Z,-2.87
2019-01-24T05:40:24.118Z,-2.88
2019-01-24T05:42:53.733Z,-2.90
2019-01-24T05:45:23.332Z,-2.90
2019-01-24T05:47:52.858Z,-2.91
2019-01-24T05:50:22.378Z,-2.93
2019-01-24T05:52:51.914Z,-2.93
2019-01-24T05:55:21.445Z,-2.95
2019-01-24T05:57:51.091Z,-2.93
2019-01-24T06:00:29.248Z,-2.93
2019-01-24T06:02:58.797Z,-2.93
2019-01-24T06:05:28.316Z,-2.92
2019-01-24T06:07:57.845Z,-2.91
2019-01-24T06:10:27.385Z,-2.90
2019-01-24T06:12:56.906Z,-2.88
2019-01-24T06:15:26.646Z,-2.85
2019-01-24T06:17:56.167Z,-2.83
2019-01-24T06:20:25.682Z,-2.81
2019-01-24T06:22:55.231Z,-2.79
2019-01-24T06:25:24.746Z,-2.82
2019-01-24T06:27:54.475Z,-2.84
2019-01-24T06:30:24.710Z,-2.87
2019-01-24T06:32:54.227Z,-2.90
2019-01-24T06:35:23.768Z,-2.92
2019-01-24T06:37:53.294Z,-2.92
2019-01-24T06:40:22.829Z,-2.92
2019-01-24T06:42:52.360Z,-2.94
2019-01-24T06:45:23.486Z,-2.98
2019-01-24T06:47:53.030Z,-2.99
2019-01-24T06:50:22.699Z,-3.00
2019-01-24T06:52:52.393Z,-3.01
2019-01-24T06:55:28.116Z,-3.02
2019-01-24T06:57:57.635Z,-3.03
2019-01-24T07:00:27.252Z,-3.04
2019-01-24T07:02:56.837Z,-3.05
2019-01-24T07:05:26.395Z,-3.06
2019-01-24T07:07:57.822Z,-3.06
2019-01-24T07:10:27.368Z,-3.08
2019-01-24T07:12:56.873Z,-3.05
2019-01-24T07:15:26.458Z,-3.05
2019-01-24T07:17:56.083Z,-3.04
2019-01-24T07:20:25.685Z,-3.06
2019-01-24T07:22:55.210Z,-3.08
2019-01-24T07:25:27.740Z,-3.06
2019-01-24T07:27:57.352Z,-3.06
2019-01-24T07:30:26.868Z,-3.05
2019-01-24T07:32:56.389Z,-3.06
2019-01-24T07:35:25.950Z,-3.03
2019-01-24T07:37:55.471Z,-3.04
2019-01-24T07:40:25.005Z,-3.03
2019-01-24T07:42:54.591Z,-3.01
2019-01-24T07:45:28.406Z,-3.00
2019-01-24T07:47:57.942Z,-3.01
2019-01-24T07:50:27.602Z,-3.00
2019-01-24T07:52:57.140Z,-3.00
2019-01-24T07:55:26.663Z,-2.99
2019-01-24T07:57:56.261Z,-2.97
2019-01-24T08:00:30.257Z,-2.95
2019-01-24T08:02:59.779Z,-2.96
2019-01-24T08:05:31.226Z,-2.94
2019-01-24T08:08:00.748Z,-2.91
2019-01-24T08:10:30.298Z,-2.89
2019-01-24T08:12:59.811Z,-2.88
2019-01-24T08:15:29.410Z,-2.90
2019-01-24T08:17:58.949Z,-2.92
2019-01-24T08:20:29.214Z,-2.93
2019-01-24T08:22:58.751Z,-2.92
2019-01-24T08:25:28.278Z,-2.91
2019-01-24T08:27:58.140Z,-2.90
2019-01-24T08:30:31.091Z,-2.84
2019-01-24T08:33:00.689Z,-2.73
2019-01-24T08:35:30.577Z,-2.67
2019-01-24T08:38:00.100Z,-2.71
2019-01-24T08:40:29.714Z,-2.73
2019-01-24T08:42:59.245Z,-2.78
2019-01-24T08:45:28.841Z,-2.78
2019-01-24T08:47:58.376Z,-2.74
2019-01-24T08:50:28.439Z,-2.73
2019-01-24T08:52:57.958Z,-2.72
2019-01-24T08:55:34.290Z,-2.74
2019-01-24T08:58:04.385Z,-2.72
2019-01-24T09:00:33.998Z,-2.72
2019-01-24T09:03:03.584Z,-2.69
2019-01-24T09:05:33.103Z,-2.65
2019-01-24T09:08:02.721Z,-2.60
2019-01-24T09:10:37.877Z,-2.57
2019-01-24T09:13:07.852Z,-2.54
2019-01-24T09:15:37.706Z,-2.51
2019-01-24T09:18:08.618Z,-2.50
2019-01-24T09:20:38.166Z,-2.51
2019-01-24T09:23:07.747Z,-2.54
2019-01-24T09:25:37.430Z,-2.50
2019-01-24T09:28:07.114Z,-2.50
2019-01-24T09:30:36.821Z,-2.49
2019-01-24T09:33:06.409Z,-2.45
2019-01-24T09:35:36.016Z,-2.42
2019-01-24T09:38:05.913Z,-2.42
2019-01-24T09:40:35.428Z,-2.43
2019-01-24T09:43:05.138Z,-2.42
2019-01-24T09:45:34.804Z,-2.39
2019-01-24T09:48:05.353Z,-2.39
2019-01-24T09:50:34.889Z,-2.38
2019-01-24T09:53:04.406Z,-2.34
2019-01-24T09:55:33.932Z,-2.24
2019-01-24T09:58:03.522Z,-2.15
2019-01-24T10:00:35.067Z,-2.14
2019-01-24T10:03:05.028Z,-2.15
2019-01-24T10:05:34.631Z,-2.22
2019-01-24T10:08:04.667Z,-2.22
2019-01-24T10:10:34.277Z,-2.24
2019-01-24T10:13:03.788Z,-2.21
2019-01-24T10:15:33.314Z,-2.20
2019-01-24T10:18:02.861Z,-2.21
2019-01-24T10:20:32.406Z,-2.24
2019-01-24T10:23:01.936Z,-2.22
2019-01-24T10:25:34.771Z,-2.24
2019-01-24T10:28:04.661Z,-2.23
2019-01-24T10:30:34.384Z,-2.24
2019-01-24T10:33:04.048Z,-2.22
2019-01-24T10:35:33.583Z,-2.21
2019-01-24T10:38:03.173Z,-2.27
2019-01-24T10:40:34.067Z,-2.31
2019-01-24T10:43:03.930Z,-2.26
2019-01-24T10:45:33.547Z,-2.23
2019-01-24T10:48:03.220Z,-2.23
2019-01-24T10:50:32.749Z,-2.24
2019-01-24T10:53:02.291Z,-2.20
2019-01-24T10:55:31.885Z,-2.20
2019-01-24T10:58:01.965Z,-2.14
2019-01-24T11:00:38.331Z,-2.05
2019-01-24T11:03:10.889Z,-1.99
2019-01-24T11:05:40.413Z,-1.92
2019-01-24T11:08:10.211Z,-1.88
2019-01-24T11:10:39.819Z,-1.88
2019-01-24T11:13:09.357Z,-1.97
2019-01-24T11:15:38.885Z,-2.05
2019-01-24T11:18:08.556Z,-2.07
2019-01-24T11:20:38.085Z,-2.10
2019-01-24T11:23:07.803Z,-2.08
2019-01-24T11:25:37.545Z,-2.08
2019-01-24T11:28:07.170Z,-2.12
2019-01-24T11:30:37.031Z,-2.16
2019-01-24T11:33:08.388Z,-2.24
2019-01-24T11:35:38.900Z,-2.31
2019-01-24T11:38:08.665Z,-2.26
2019-01-24T11:40:38.378Z,-2.24
2019-01-24T11:43:07.992Z,-2.24
2019-01-24T11:45:40.406Z,-2.23
2019-01-24T11:48:10.120Z,-2.21
2019-01-24T11:50:39.645Z,-2.28
2019-01-24T11:53:09.195Z,-2.32
2019-01-24T11:55:38.728Z,-2.34
2019-01-24T11:58:08.628Z,-2.40
2019-01-24T12:00:41.316Z,-2.47
2019-01-24T12:03:10.838Z,-2.47
2019-01-24T12:05:40.376Z,-2.49
2019-01-24T12:08:10.245Z,-2.49
2019-01-24T12:10:39.782Z,-2.49
2019-01-24T12:13:09.344Z,-2.55
2019-01-24T12:15:38.890Z,-2.58
2019-01-24T12:18:08.536Z,-2.65
2019-01-24T12:20:38.082Z,-2.72
2019-01-24T12:23:07.695Z,-2.78
2019-01-24T12:25:37.239Z,-2.81
2019-01-24T12:28:07.011Z,-2.82
2019-01-24T12:30:37.762Z,-2.89
2019-01-24T12:33:07.535Z,-2.94
2019-01-24T12:35:37.266Z,-2.97
2019-01-24T12:38:07.034Z,-3.04
2019-01-24T12:40:36.654Z,-3.09
2019-01-24T12:43:06.528Z,-3.16
2019-01-24T12:45:39.095Z,-3.18
2019-01-24T12:48:08.788Z,-3.13
2019-01-24T12:50:38.440Z,-3.12
2019-01-24T12:53:08.267Z,-3.16
2019-01-24T12:55:37.875Z,-3.17
2019-01-24T12:58:07.566Z,-3.18
2019-01-24T13:00:38.546Z,-3.22
2019-01-24T13:03:08.194Z,-3.23
2019-01-24T13:05:37.706Z,-3.22
2019-01-24T13:08:07.311Z,-3.17
2019-01-24T13:10:37.042Z,-3.16
2019-01-24T13:13:06.977Z,-3.17
2019-01-24T13:15:36.949Z,-3.21
2019-01-24T13:18:07.137Z,-3.24
2019-01-24T13:20:36.780Z,-3.26
2019-01-24T13:23:06.636Z,-3.25
2019-01-24T13:25:36.268Z,-3.25
2019-01-24T13:28:06.239Z,-3.29
2019-01-24T13:30:36.211Z,-3.35
2019-01-24T13:33:06.275Z,-3.37
2019-01-24T13:35:35.837Z,-3.35
2019-01-24T13:38:06.166Z,-3.36
2019-01-24T13:40:35.711Z,-3.34
2019-01-24T13:43:05.980Z,-3.30
2019-01-24T13:45:37.010Z,-3.28
2019-01-24T13:48:07.079Z,-3.26
2019-01-24T13:50:36.599Z,-3.29
2019-01-24T13:53:06.503Z,-3.30
2019-01-24T13:55:36.092Z,-3.28
2019-01-24T13:58:06.093Z,-3.28
2019-01-24T14:00:37.006Z,-3.28
2019-01-24T14:03:14.626Z,-3.27
2019-01-24T14:05:44.426Z,-3.32
2019-01-24T14:08:13.966Z,-3.39
2019-01-24T14:10:43.561Z,-3.42
2019-01-24T14:13:13.128Z,-3.41
2019-01-24T14:15:42.632Z,-3.41
2019-01-24T14:18:12.179Z,-3.44
2019-01-24T14:20:41.738Z,-3.45
2019-01-24T14:23:11.279Z,-3.46
2019-01-24T14:25:40.822Z,-3.46
2019-01-24T14:28:10.543Z,-3.46
2019-01-24T14:30:40.176Z,-3.46
2019-01-24T14:33:09.798Z,-3.44
2019-01-24T14:35:39.407Z,-3.42
2019-01-24T14:38:10.013Z,-3.41
2019-01-24T14:40:39.574Z,-3.41
2019-01-24T14:43:09.184Z,-3.42
2019-01-24T14:45:38.721Z,-3.39
2019-01-24T14:48:08.598Z,-3.37
2019-01-24T14:50:38.517Z,-3.36
2019-01-24T14:53:08.261Z,-3.35
2019-01-24T14:55:37.781Z,-3.37
2019-01-24T14:58:07.578Z,-3.36
2019-01-24T15:00:45.274Z,-3.35
2019-01-24T15:03:14.844Z,-3.32
2019-01-24T15:05:44.510Z,-3.27
2019-01-24T15:08:14.898Z,-3.24
2019-01-24T15:10:44.470Z,-3.24
2019-01-24T15:13:14.079Z,-3.25
2019-01-24T15:15:43.687Z,-3.26
2019-01-24T15:18:13.364Z,-3.28
2019-01-24T15:20:42.973Z,-3.28
2019-01-24T15:23:12.515Z,-3.27
2019-01-24T15:25:42.034Z,-3.26
2019-01-24T15:28:11.720Z,-3.25
2019-01-24T15:30:41.464Z,-3.25
2019-01-24T15:33:11.038Z,-3.26
2019-01-24T15:35:40.620Z,-3.30
2019-01-24T15:38:10.315Z,-3.31
2019-01-24T15:40:40.073Z,-3.32
2019-01-24T15:43:09.700Z,-3.33
2019-01-24T15:45:39.530Z,-3.35
2019-01-24T15:48:09.481Z,-3.35
2019-01-24T15:50:39.378Z,-3.36
2019-01-24T15:53:11.877Z,-3.36
2019-01-24T15:55:41.577Z,-3.36
2019-01-24T15:58:11.285Z,-3.37
2019-01-24T16:00:41.177Z,-3.38
2019-01-24T16:03:10.837Z,-3.39
2019-01-24T16:05:40.358Z,-3.39
2019-01-24T16:08:10.051Z,-3.38
2019-01-24T16:10:39.589Z,-3.38
2019-01-24T16:13:09.131Z,-3.36
2019-01-24T16:15:38.666Z,-3.30
2019-01-24T16:18:09.597Z,-3.26
2019-01-24T16:20:39.481Z,-3.20
2019-01-24T16:23:09.148Z,-3.18
2019-01-24T16:25:39.020Z,-3.17
2019-01-24T16:28:08.548Z,-3.15
2019-01-24T16:30:38.546Z,-3.09
2019-01-24T16:33:09.645Z,-3.03
2019-01-24T16:35:39.565Z,-3.00
2019-01-24T16:38:09.837Z,-2.99
2019-01-24T16:40:39.478Z,-2.98
2019-01-24T16:43:08.998Z,-3.01
2019-01-24T16:45:38.536Z,-3.05
2019-01-24T16:48:08.476Z,-3.09
2019-01-24T16:50:38.011Z,-3.12
2019-01-24T16:53:07.611Z,-3.12
2019-01-24T16:55:37.168Z,-3.11
2019-01-24T16:58:07.352Z,-3.14
2019-01-24T17:00:43.946Z,-3.16
2019-01-24T17:03:13.535Z,-3.17
2019-01-24T17:05:43.268Z,-3.21
2019-01-24T17:08:16.763Z,-3.24
2019-01-24T17:10:44.100Z,-3.25
2019-01-24T17:13:13.645Z,-3.29
2019-01-24T17:15:43.174Z,-3.32
2019-01-24T17:18:12.714Z,-3.29
2019-01-24T17:20:42.259Z,-3.31
2019-01-24T17:23:11.787Z,-3.30
2019-01-24T17:25:41.327Z,-3.28
2019-01-24T17:28:10.839Z,-3.28
2019-01-24T17:30:40.382Z,-3.29
2019-01-24T17:33:09.914Z,-3.30
2019-01-24T17:35:40.792Z,-3.27
2019-01-24T17:38:10.437Z,-3.26
2019-01-24T17:40:40.022Z,-3.23
2019-01-24T17:43:09.603Z,-3.24
2019-01-24T17:45:39.180Z,-3.24
2019-01-24T17:48:08.982Z,-3.22
2019-01-24T17:50:38.504Z,-3.20
2019-01-24T17:53:08.043Z,-3.22
2019-01-24T17:55:46.147Z,-3.20
2019-01-24T17:58:15.857Z,-3.17
2019-01-24T18:00:47.023Z,-3.18
2019-01-24T18:03:16.832Z,-3.16
2019-01-24T18:05:46.688Z,-3.17
2019-01-24T18:08:16.438Z,-3.21
2019-01-24T18:10:45.920Z,-3.22
2019-01-24T18:13:15.470Z,-3.25
2019-01-24T18:15:45.742Z,-3.27
2019-01-24T18:18:15.915Z,-3.29
2019-01-24T18:20:45.441Z,-3.31
2019-01-24T18:23:15.062Z,-3.30
2019-01-24T18:25:44.591Z,-3.32
2019-01-24T18:28:14.366Z,-3.31
2019-01-24T18:30:44.133Z,-3.35
2019-01-24T18:33:13.864Z,-3.36
2019-01-24T18:35:43.550Z,-3.35
2019-01-24T18:38:13.155Z,-3.34
2019-01-24T18:40:42.847Z,-3.34
2019-01-24T18:43:16.600Z,-3.30
2019-01-24T18:45:50.307Z,-3.29
2019-01-24T18:48:19.997Z,-3.24
2019-01-24T18:50:49.611Z,-3.24
2019-01-24T18:53:19.219Z,-3.22
2019-01-24T18:55:48.732Z,-3.21
2019-01-24T18:58:18.258Z,-3.18
2019-01-24T19:00:47.975Z,-3.17
2019-01-24T19:03:17.494Z,-3.20
2019-01-24T19:05:47.037Z,-3.21
2019-01-24T19:08:16.702Z,-3.23
2019-01-24T19:10:46.232Z,-3.24
2019-01-24T19:13:15.814Z,-3.26
2019-01-24T19:15:45.355Z,-3.27
2019-01-24T19:18:15.212Z,-3.27
2019-01-24T19:20:44.759Z,-3.28
2019-01-24T19:23:14.277Z,-3.27
2019-01-24T19:25:44.673Z,-3.29
2019-01-24T19:28:14.190Z,-3.29
2019-01-24T19:30:43.903Z,-3.27
2019-01-24T19:33:13.420Z,-3.26
2019-01-24T19:35:42.959Z,-3.26
2019-01-24T19:38:12.487Z,-3.25
2019-01-24T19:40:42.200Z,-3.23
2019-01-24T19:43:11.732Z,-3.21
2019-01-24T19:45:41.262Z,-3.22
2019-01-24T19:48:11.056Z,-3.23
2019-01-24T19:50:40.600Z,-3.21
2019-01-24T19:53:10.191Z,-3.20
2019-01-24T19:55:39.898Z,-3.22
2019-01-24T19:58:09.691Z,-3.19
2019-01-24T20:00:39.297Z,-3.16
2019-01-24T20:03:09.374Z,-3.17
2019-01-24T20:05:38.890Z,-3.17
2019-01-24T20:08:08.650Z,-3.16
2019-01-24T20:10:38.198Z,-3.15
2019-01-24T20:13:07.731Z,-3.15
2019-01-24T20:15:37.332Z,-3.17
2019-01-24T20:18:07.760Z,-3.16
2019-01-24T20:20:37.658Z,-3.16
2019-01-24T20:23:07.699Z,-3.14
2019-01-24T20:25:37.463Z,-3.15
2019-01-24T20:28:07.004Z,-3.16
2019-01-24T20:30:36.661Z,-3.15
2019-01-24T20:33:06.636Z,-3.16
2019-01-24T20:35:43.514Z,-3.16
2019-01-24T20:38:13.395Z,-3.16
2019-01-24T20:40:42.917Z,-3.17
2019-01-24T20:43:14.185Z,-3.19
2019-01-24T20:45:43.771Z,-3.20
2019-01-24T20:48:13.548Z,-3.20
2019-01-24T20:50:43.277Z,-3.20
2019-01-24T20:53:12.971Z,-3.20
2019-01-24T20:55:42.485Z,-3.21
2019-01-24T20:58:12.029Z,-3.18
2019-01-24T21:00:41.546Z,-3.14
2019-01-24T21:03:11.237Z,-3.11
2019-01-24T21:05:40.753Z,-3.10
2019-01-24T21:08:10.302Z,-3.10
2019-01-24T21:10:39.824Z,-3.15
2019-01-24T21:13:09.419Z,-3.17
2019-01-24T21:15:39.020Z,-3.17
2019-01-24T21:18:08.613Z,-3.14
2019-01-24T21:20:38.311Z,-3.12
2019-01-24T21:23:08.038Z,-3.11
2019-01-24T21:25:37.548Z,-3.08
2019-01-24T21:28:07.186Z,-3.10
2019-01-24T21:30:38.268Z,-3.16
2019-01-24T21:33:08.644Z,-3.18
2019-01-24T21:35:38.166Z,-3.18
2019-01-24T21:38:09.349Z,-3.14
2019-01-24T21:40:38.861Z,-3.11
2019-01-24T21:43:08.415Z,-3.11
2019-01-24T21:45:39.545Z,-3.12
2019-01-24T21:48:09.438Z,-3.12
2019-01-24T21:50:39.028Z,-3.14
2019-01-24T21:53:08.637Z,-3.15
2019-01-24T21:55:38.171Z,-3.16
2019-01-24T21:58:08.245Z,-3.13
2019-01-24T22:00:37.916Z,-3.10
2019-01-24T22:03:07.608Z,-3.09
2019-01-24T22:05:37.242Z,-3.08
2019-01-24T22:08:07.237Z,-3.07
2019-01-24T22:10:36.844Z,-3.06
2019-01-24T22:13:06.772Z,-3.07
2019-01-24T22:15:36.692Z,-3.06
2019-01-24T22:18:06.661Z,-3.05
2019-01-24T22:20:36.440Z,-3.05
2019-01-24T22:23:06.612Z,-3.06
2019-01-24T22:25:36.479Z,-3.06
2019-01-24T22:28:06.810Z,-3.06
2019-01-24T22:30:42.049Z,-3.03
2019-01-24T22:33:11.721Z,-3.00
2019-01-24T22:35:41.272Z,-2.96
2019-01-24T22:38:10.821Z,-2.95
2019-01-24T22:40:40.362Z,-2.98
2019-01-24T22:43:10.026Z,-3.01
2019-01-24T22:45:39.945Z,-3.00
2019-01-24T22:48:11.010Z,-3.00
2019-01-24T22:50:40.553Z,-2.98
2019-01-24T22:53:10.153Z,-2.94
2019-01-24T22:55:39.696Z,-2.95
2019-01-24T22:58:09.389Z,-2.94
2019-01-24T23:00:59.126Z,-2.94
2019-01-24T23:03:44.245Z,-2.95
2019-01-24T23:06:13.789Z,-2.95
2019-01-24T23:08:43.314Z,-2.95
2019-01-24T23:11:12.921Z,-2.96
2019-01-24T23:13:42.450Z,-2.94
2019-01-24T23:16:12.132Z,-2.92
2019-01-24T23:18:41.659Z,-2.88
2019-01-24T23:21:11.263Z,-2.87
2019-01-24T23:23:40.786Z,-2.90
2019-01-24T23:26:10.457Z,-2.86
2019-01-24T23:28:40.378Z,-2.85
2019-01-24T23:31:09.867Z,-2.88
2019-01-24T23:33:39.406Z,-2.91
2019-01-24T23:36:09.003Z,-2.92
2019-01-24T23:38:38.538Z,-2.94
2019-01-24T23:41:08.092Z,-2.98
2019-01-24T23:43:37.705Z,-3.03
2019-01-24T23:46:07.433Z,-3.06
2019-01-24T23:48:37.040Z,-3.09
2019-01-24T23:51:06.584Z,-3.12
2019-01-24T23:53:36.181Z,-3.14
2019-01-24T23:56:06.053Z,-3.14
2019-01-24T23:58:35.576Z,-3.10
